Time,TemperatureF,DewpointF,PressureIn,WindDirection,WindDirectionDegrees,WindSpeedMPH,WindSpeedGustMPH,Humidity,HourlyPrecipIn,Conditions,Clouds,dailyrainin,SoftwareType,DateUTC
2013-07-04 00:01:00,75.6,69.3,29.65,SE,135,3.6,3.6,81,0.00,,,0.00,VWS V14.01,2013-07-04 04:01:00,
2013-07-04 00:02:00,75.6,69.3,29.65,SSE,158,2.7,2.7,81,0.00,,,0.00,VWS V14.01,2013-07-04 04:02:00,
2013-07-04 00:07:00,75.7,69.5,29.65,SSE,158,3.4,3.4,81,0.00,,,0.00,VWS V14.01,2013-07-04 04:07:00,
2013-07-04 00:12:00,75.7,69.5,29.65,SSE,158,3.4,3.4,81,0.00,,,0.00,VWS V14.01,2013-07-04 04:12:00,
2013-07-04 00:17:00,75.6,69.3,29.68,WSW,248,3.1,3.1,81,0.00,,,0.00,VWS V14.01,2013-07-04 04:17:00,
2013-07-04 00:22:00,75.7,69.5,29.68,South,180,2.5,2.5,81,0.00,,,0.00,VWS V14.01,2013-07-04 04:22:00,
2013-07-04 00:27:00,75.6,69.3,29.68,SSW,202,2.5,2.5,81,0.00,,,0.00,VWS V14.01,2013-07-04 04:27:00,
2013-07-04 00:32:00,75.6,69.3,29.68,South,180,2.0,2.0,81,0.00,,,0.00,VWS V14.01,2013-07-04 04:32:00,
2013-07-04 00:37:00,75.4,69.2,29.68,SSW,202,2.5,2.5,81,0.00,,,0.00,VWS V14.01,2013-07-04 04:37:00,
2013-07-04 00:42:00,75.4,69.5,29.68,SSE,158,2.0,2.0,82,0.00,,,0.00,VWS V14.01,2013-07-04 04:42:00,
2013-07-04 00:47:00,75.2,69.3,29.68,South,180,2.9,2.9,82,0.00,,,0.00,VWS V14.01,2013-07-04 04:47:00,
2013-07-04 00:52:00,75.2,69.3,29.68,South,180,2.7,2.7,82,0.00,,,0.00,VWS V14.01,2013-07-04 04:52:00,
2013-07-04 00:57:00,75.0,69.5,29.68,SSE,158,1.6,1.6,83,0.00,,,0.00,VWS V14.01,2013-07-04 04:57:00,
2013-07-04 01:02:00,75.0,69.5,29.68,SE,135,0.0,0.0,83,0.00,,,0.00,VWS V14.01,2013-07-04 05:02:00,
2013-07-04 01:07:00,75.0,69.5,29.68,SE,135,0.0,0.0,83,0.00,,,0.00,VWS V14.01,2013-07-04 05:07:00,
2013-07-04 01:12:00,74.8,69.7,29.68,SSW,202,2.7,2.7,84,0.00,,,0.00,VWS V14.01,2013-07-04 05:12:00,
2013-07-04 01:17:00,74.8,69.7,29.68,SE,135,1.1,1.1,84,0.00,,,0.00,VWS V14.01,2013-07-04 05:17:00,
2013-07-04 01:22:00,74.8,69.7,29.68,ESE,112,1.6,1.6,84,0.00,,,0.00,VWS V14.01,2013-07-04 05:22:00,
2013-07-04 01:27:00,74.7,69.5,29.68,ESE,112,0.0,0.0,84,0.00,,,0.00,VWS V14.01,2013-07-04 05:27:00,
2013-07-04 01:32:00,74.7,69.9,29.68,SE,135,0.0,0.0,85,0.00,,,0.00,VWS V14.01,2013-07-04 05:32:00,
2013-07-04 01:37:00,74.5,69.7,29.68,SE,135,0.9,0.9,85,0.00,,,0.00,VWS V14.01,2013-07-04 05:37:00,
2013-07-04 01:42:00,74.3,69.5,29.68,ESE,112,1.6,1.6,85,0.00,,,0.00,VWS V14.01,2013-07-04 05:42:00,
2013-07-04 01:47:00,74.1,69.3,29.68,SSE,158,0.0,0.0,85,0.00,,,0.00,VWS V14.01,2013-07-04 05:47:00,
2013-07-04 01:52:00,74.1,69.3,29.68,East,90,0.0,0.0,85,0.00,,,0.00,VWS V14.01,2013-07-04 05:52:00,
2013-07-04 01:57:00,74.1,69.7,29.68,NNE,22,1.6,1.6,86,0.00,,,0.00,VWS V14.01,2013-07-04 05:57:00,
2013-07-04 02:02:00,73.9,69.5,29.68,NNE,22,1.1,1.1,86,0.00,,,0.00,VWS V14.01,2013-07-04 06:02:00,
2013-07-04 02:08:00,73.9,69.5,29.68,NE,45,0.0,0.0,86,0.00,,,0.00,VWS V14.01,2013-07-04 06:08:00,
2013-07-04 02:13:00,73.9,69.5,29.68,NE,45,0.0,0.0,86,0.00,,,0.00,VWS V14.01,2013-07-04 06:13:00,
2013-07-04 02:18:00,73.9,69.5,29.68,NNE,22,0.0,0.0,86,0.00,,,0.00,VWS V14.01,2013-07-04 06:18:00,
2013-07-04 02:23:00,74.1,70.0,29.68,North,0,0.0,0.0,87,0.00,,,0.00,VWS V14.01,2013-07-04 06:23:00,
2013-07-04 02:28:00,74.1,70.0,29.68,North,0,0.0,0.0,87,0.00,,,0.00,VWS V14.01,2013-07-04 06:28:00,
2013-07-04 02:33:00,74.3,70.2,29.68,North,0,0.0,0.0,87,0.00,,,0.00,VWS V14.01,2013-07-04 06:33:00,
2013-07-04 02:38:00,74.3,70.2,29.68,North,0,0.0,0.0,87,0.00,,,0.00,VWS V14.01,2013-07-04 06:38:00,
2013-07-04 02:43:00,74.3,70.2,29.68,North,0,0.0,0.0,87,0.00,,,0.00,VWS V14.01,2013-07-04 06:43:00,
2013-07-04 02:48:00,74.3,70.2,29.68,ENE,68,0.0,0.0,87,0.00,,,0.00,VWS V14.01,2013-07-04 06:48:00,
2013-07-04 02:53:00,74.1,70.0,29.68,East,90,0.0,0.0,87,0.00,,,0.00,VWS V14.01,2013-07-04 06:53:00,
2013-07-04 02:57:00,73.9,69.8,29.68,ESE,112,0.0,0.0,87,0.00,,,0.00,VWS V14.01,2013-07-04 06:57:00,
2013-07-04 03:02:00,73.9,69.8,29.68,SSW,202,0.0,0.0,87,0.00,,,0.00,VWS V14.01,2013-07-04 07:02:00,
2013-07-04 03:07:00,73.8,69.7,29.68,ESE,112,0.0,0.0,87,0.00,,,0.00,VWS V14.01,2013-07-04 07:07:00,
2013-07-04 03:12:00,73.6,69.5,29.68,SSW,202,0.0,0.0,87,0.00,,,0.00,VWS V14.01,2013-07-04 07:12:00,
2013-07-04 03:17:00,73.4,69.3,29.68,SSE,158,0.0,0.0,87,0.00,,,0.00,VWS V14.01,2013-07-04 07:17:00,
2013-07-04 03:23:00,73.4,69.6,29.68,South,180,0.0,0.0,88,0.00,,,0.00,VWS V14.01,2013-07-04 07:23:00,
2013-07-04 03:28:00,73.2,69.5,29.68,South,180,5.4,5.4,88,0.00,,,0.00,VWS V14.01,2013-07-04 07:28:00,
2013-07-04 03:33:00,73.2,69.8,29.68,South,180,2.9,2.9,89,0.00,,,0.00,VWS V14.01,2013-07-04 07:33:00,
2013-07-04 03:38:00,73.2,69.8,29.68,SSW,202,2.7,2.7,89,0.00,,,0.00,VWS V14.01,2013-07-04 07:38:00,
2013-07-04 03:42:00,73.2,69.8,29.68,SE,135,2.5,2.5,89,0.00,,,0.00,VWS V14.01,2013-07-04 07:42:00,
2013-07-04 03:47:00,73.2,69.8,29.65,South,180,3.1,3.1,89,0.00,,,0.00,VWS V14.01,2013-07-04 07:47:00,
2013-07-04 03:52:00,73.2,70.1,29.65,WSW,248,6.3,6.3,90,0.00,,,0.00,VWS V14.01,2013-07-04 07:52:00,
2013-07-04 03:57:00,73.2,70.1,29.65,SSW,202,4.9,4.9,90,0.00,,,0.00,VWS V14.01,2013-07-04 07:57:00,
2013-07-04 04:02:00,73.2,70.1,29.68,South,180,4.3,4.3,90,0.00,,,0.00,VWS V14.01,2013-07-04 08:02:00,
2013-07-04 04:08:00,73.4,70.0,29.68,SSW,202,3.4,3.4,89,0.00,,,0.00,VWS V14.01,2013-07-04 08:08:00,
2013-07-04 04:13:00,73.4,70.0,29.68,South,180,5.8,5.8,89,0.00,,,0.00,VWS V14.01,2013-07-04 08:13:00,
2013-07-04 04:18:00,73.4,70.3,29.68,SSW,202,2.2,2.2,90,0.00,,,0.00,VWS V14.01,2013-07-04 08:18:00,
2013-07-04 04:23:00,73.4,70.3,29.68,NE,45,2.0,2.0,90,0.00,,,0.00,VWS V14.01,2013-07-04 08:23:00,
2013-07-04 04:28:00,73.4,70.3,29.68,SSW,202,2.2,2.2,90,0.00,,,0.00,VWS V14.01,2013-07-04 08:28:00,
2013-07-04 04:33:00,73.4,70.3,29.68,ENE,68,0.0,0.0,90,0.00,,,0.00,VWS V14.01,2013-07-04 08:33:00,
2013-07-04 04:38:00,73.4,70.3,29.68,SE,135,0.0,0.0,90,0.00,,,0.00,VWS V14.01,2013-07-04 08:38:00,
2013-07-04 04:43:00,73.4,70.3,29.68,NNW,338,0.0,0.0,90,0.00,,,0.00,VWS V14.01,2013-07-04 08:43:00,
2013-07-04 04:48:00,73.4,70.3,29.68,NW,315,0.0,0.0,90,0.00,,,0.00,VWS V14.01,2013-07-04 08:48:00,
2013-07-04 04:53:00,73.4,70.3,29.68,NW,315,0.0,0.0,90,0.00,,,0.00,VWS V14.01,2013-07-04 08:53:00,
2013-07-04 04:58:00,73.4,70.3,29.68,NW,315,0.0,0.0,90,0.00,,,0.00,VWS V14.01,2013-07-04 08:58:00,
2013-07-04 05:03:00,73.4,70.3,29.68,NNE,22,0.0,0.0,90,0.00,,,0.00,VWS V14.01,2013-07-04 09:03:00,
2013-07-04 05:08:00,73.4,70.3,29.68,ENE,68,0.0,0.0,90,0.00,,,0.00,VWS V14.01,2013-07-04 09:08:00,
2013-07-04 05:13:00,73.4,70.3,29.68,SW,225,0.0,0.0,90,0.00,,,0.00,VWS V14.01,2013-07-04 09:13:00,
2013-07-04 05:18:00,73.4,70.3,29.68,ENE,68,0.0,0.0,90,0.00,,,0.00,VWS V14.01,2013-07-04 09:18:00,
2013-07-04 05:23:00,73.4,70.3,29.68,SSE,158,2.9,2.9,90,0.00,,,0.00,VWS V14.01,2013-07-04 09:23:00,
2013-07-04 05:28:00,73.4,70.3,29.68,South,180,2.9,2.9,90,0.00,,,0.00,VWS V14.01,2013-07-04 09:28:00,
2013-07-04 05:33:00,73.2,70.1,29.68,SSE,158,2.7,2.7,90,0.00,,,0.00,VWS V14.01,2013-07-04 09:33:00,
2013-07-04 05:38:00,73.2,70.1,29.68,South,180,2.9,2.9,90,0.00,,,0.00,VWS V14.01,2013-07-04 09:38:00,
2013-07-04 05:43:00,73.0,69.9,29.68,SSW,202,2.7,2.7,90,0.00,,,0.00,VWS V14.01,2013-07-04 09:43:00,
2013-07-04 05:48:00,73.0,70.3,29.65,South,180,2.2,2.2,91,0.00,,,0.00,VWS V14.01,2013-07-04 09:48:00,
2013-07-04 05:53:00,73.0,70.3,29.65,SSE,158,3.4,3.4,91,0.00,,,0.00,VWS V14.01,2013-07-04 09:53:00,
2013-07-04 05:58:00,73.0,70.3,29.65,WSW,248,3.8,3.8,91,0.00,,,0.00,VWS V14.01,2013-07-04 09:58:00,
2013-07-04 06:03:00,73.2,70.4,29.68,South,180,3.1,3.1,91,0.00,,,0.00,VWS V14.01,2013-07-04 10:03:00,
2013-07-04 06:08:00,73.2,70.4,29.68,SSE,158,2.0,2.0,91,0.00,,,0.00,VWS V14.01,2013-07-04 10:08:00,
2013-07-04 06:13:00,73.2,70.4,29.68,SE,135,2.5,2.5,91,0.00,,,0.00,VWS V14.01,2013-07-04 10:13:00,
2013-07-04 06:18:00,73.2,70.4,29.68,South,180,4.0,4.0,91,0.00,,,0.00,VWS V14.01,2013-07-04 10:18:00,
2013-07-04 06:23:00,73.2,70.4,29.68,SSW,202,3.1,3.1,91,0.00,,,0.00,VWS V14.01,2013-07-04 10:23:00,
2013-07-04 06:28:00,73.2,70.4,29.68,SSW,202,2.0,2.0,91,0.00,,,0.00,VWS V14.01,2013-07-04 10:28:00,
2013-07-04 06:33:00,73.4,70.6,29.65,WSW,248,0.0,0.0,91,0.00,,,0.00,VWS V14.01,2013-07-04 10:33:00,
2013-07-04 06:38:00,73.4,70.6,29.65,SSW,202,0.0,0.0,91,0.00,,,0.00,VWS V14.01,2013-07-04 10:38:00,
2013-07-04 06:43:00,73.6,70.8,29.65,North,0,1.3,1.3,91,0.00,,,0.00,VWS V14.01,2013-07-04 10:43:00,
2013-07-04 06:48:00,73.6,70.8,29.68,SW,225,2.9,2.9,91,0.00,,,0.00,VWS V14.01,2013-07-04 10:48:00,
2013-07-04 06:53:00,73.6,70.8,29.68,SSW,202,2.9,2.9,91,0.00,,,0.00,VWS V14.01,2013-07-04 10:53:00,
2013-07-04 06:58:00,73.8,71.0,29.68,NW,315,2.5,2.5,91,0.00,,,0.00,VWS V14.01,2013-07-04 10:58:00,
2013-07-04 07:03:00,73.9,71.2,29.68,SW,225,2.7,2.7,91,0.00,,,0.00,VWS V14.01,2013-07-04 11:03:00,
2013-07-04 07:09:00,73.9,71.2,29.68,West,270,3.1,3.1,91,0.00,,,0.00,VWS V14.01,2013-07-04 11:09:00,
2013-07-04 07:14:00,74.1,71.3,29.68,South,180,0.0,0.0,91,0.00,,,0.00,VWS V14.01,2013-07-04 11:14:00,
2013-07-04 07:19:00,74.1,71.3,29.68,SSW,202,2.7,2.7,91,0.00,,,0.00,VWS V14.01,2013-07-04 11:19:00,
2013-07-04 07:24:00,74.3,71.5,29.68,SSW,202,4.3,4.3,91,0.00,,,0.00,VWS V14.01,2013-07-04 11:24:00,
2013-07-04 07:29:00,74.5,71.7,29.68,SSW,202,2.7,2.7,91,0.00,,,0.00,VWS V14.01,2013-07-04 11:29:00,
2013-07-04 07:34:00,74.8,72.0,29.68,SSW,202,6.0,6.0,91,0.00,,,0.00,VWS V14.01,2013-07-04 11:34:00,
2013-07-04 07:39:00,75.0,71.9,29.68,South,180,2.9,2.9,90,0.00,,,0.00,VWS V14.01,2013-07-04 11:39:00,
2013-07-04 07:44:00,75.4,72.2,29.68,WNW,292,2.0,2.0,90,0.00,,,0.00,VWS V14.01,2013-07-04 11:44:00,
2013-07-04 07:49:00,75.6,72.1,29.71,NW,315,1.6,1.6,89,0.00,,,0.00,VWS V14.01,2013-07-04 11:49:00,
2013-07-04 07:54:00,75.7,72.3,29.71,SSW,202,3.4,3.4,89,0.00,,,0.00,VWS V14.01,2013-07-04 11:54:00,
2013-07-04 07:59:00,75.7,71.9,29.71,SSW,202,3.4,3.4,88,0.00,,,0.00,VWS V14.01,2013-07-04 11:59:00,
2013-07-04 08:04:00,75.7,71.6,29.68,SSW,202,4.3,4.3,87,0.00,,,0.00,VWS V14.01,2013-07-04 12:04:00,
2013-07-04 08:09:00,75.7,71.6,29.68,South,180,3.8,3.8,87,0.00,,,0.00,VWS V14.01,2013-07-04 12:09:00,
2013-07-04 08:14:00,75.7,71.3,29.68,SSW,202,3.1,3.1,86,0.00,,,0.00,VWS V14.01,2013-07-04 12:14:00,
2013-07-04 08:19:00,75.7,71.3,29.68,South,180,2.7,2.7,86,0.00,,,0.00,VWS V14.01,2013-07-04 12:19:00,
2013-07-04 08:24:00,75.9,71.4,29.68,SSE,158,2.7,2.7,86,0.00,,,0.00,VWS V14.01,2013-07-04 12:24:00,
2013-07-04 08:29:00,76.1,71.6,29.68,SE,135,5.6,5.6,86,0.00,,,0.00,VWS V14.01,2013-07-04 12:29:00,
2013-07-04 08:34:00,76.5,72.0,29.71,SSE,158,2.9,2.9,86,0.00,,,0.00,VWS V14.01,2013-07-04 12:34:00,
2013-07-04 08:39:00,76.6,71.8,29.71,SW,225,5.4,5.4,85,0.00,,,0.00,VWS V14.01,2013-07-04 12:39:00,
2013-07-04 08:44:00,76.8,71.6,29.71,SSW,202,3.4,3.4,84,0.00,,,0.00,VWS V14.01,2013-07-04 12:44:00,
2013-07-04 08:49:00,76.8,71.3,29.71,South,180,2.5,2.5,83,0.00,,,0.00,VWS V14.01,2013-07-04 12:49:00,
2013-07-04 08:54:00,77.0,71.4,29.71,SSE,158,2.0,2.0,83,0.00,,,0.00,VWS V14.01,2013-07-04 12:54:00,
2013-07-04 08:59:00,77.2,71.6,29.71,SSW,202,4.9,4.9,83,0.00,,,0.00,VWS V14.01,2013-07-04 12:59:00,
2013-07-04 09:04:00,77.7,71.8,29.68,SSW,202,4.0,4.0,82,0.00,,,0.00,VWS V14.01,2013-07-04 13:04:00,
2013-07-04 09:09:00,78.1,71.8,29.68,SSE,158,2.5,2.5,81,0.00,,,0.00,VWS V14.01,2013-07-04 13:09:00,
2013-07-04 09:14:00,78.1,71.8,29.68,SSW,202,5.8,5.8,81,0.00,,,0.00,VWS V14.01,2013-07-04 13:14:00,
2013-07-04 09:19:00,78.3,71.2,29.68,SSW,202,4.3,4.3,79,0.00,,,0.00,VWS V14.01,2013-07-04 13:19:00,
2013-07-04 09:24:00,78.3,71.2,29.68,SSE,158,1.6,1.6,79,0.00,,,0.00,VWS V14.01,2013-07-04 13:24:00,
2013-07-04 09:29:00,78.3,71.6,29.68,NW,315,2.9,2.9,80,0.00,,,0.00,VWS V14.01,2013-07-04 13:29:00,
2013-07-04 09:34:00,78.4,71.8,29.68,WSW,248,5.8,5.8,80,0.00,,,0.00,VWS V14.01,2013-07-04 13:34:00,
2013-07-04 09:39:00,78.4,71.4,29.68,SSW,202,2.9,2.9,79,0.00,,,0.00,VWS V14.01,2013-07-04 13:39:00,
2013-07-04 09:44:00,78.4,71.0,29.68,South,180,2.9,2.9,78,0.00,,,0.00,VWS V14.01,2013-07-04 13:44:00,
2013-07-04 09:49:00,78.4,71.0,29.68,SSE,158,1.6,1.6,78,0.00,,,0.00,VWS V14.01,2013-07-04 13:49:00,
2013-07-04 09:54:00,78.6,71.2,29.68,WSW,248,3.4,3.4,78,0.00,,,0.00,VWS V14.01,2013-07-04 13:54:00,
2013-07-04 09:59:00,78.6,71.2,29.68,SSW,202,4.0,4.0,78,0.00,,,0.00,VWS V14.01,2013-07-04 13:59:00,
2013-07-04 10:04:00,78.6,71.2,29.68,SSW,202,4.7,4.7,78,0.00,,,0.00,VWS V14.01,2013-07-04 14:04:00,
2013-07-04 10:09:00,79.0,71.5,29.68,SSW,202,3.8,3.8,78,0.00,,,0.00,VWS V14.01,2013-07-04 14:09:00,
2013-07-04 10:14:00,79.0,71.2,29.68,WSW,248,3.4,3.4,77,0.00,,,0.00,VWS V14.01,2013-07-04 14:14:00,
2013-07-04 10:19:00,79.0,71.2,29.68,SSW,202,5.4,5.4,77,0.00,,,0.00,VWS V14.01,2013-07-04 14:19:00,
2013-07-04 10:24:00,79.2,71.3,29.68,SSE,158,2.0,2.0,77,0.00,,,0.00,VWS V14.01,2013-07-04 14:24:00,
2013-07-04 10:29:00,79.3,71.5,29.68,SSW,202,1.6,1.6,77,0.00,,,0.00,VWS V14.01,2013-07-04 14:29:00,
2013-07-04 10:34:00,79.9,72.0,29.68,South,180,2.9,2.9,77,0.00,,,0.00,VWS V14.01,2013-07-04 14:34:00,
2013-07-04 10:39:00,80.1,71.8,29.68,SSW,202,5.8,5.8,76,0.00,,,0.00,VWS V14.01,2013-07-04 14:39:00,
2013-07-04 10:44:00,80.1,71.8,29.68,SSW,202,3.6,3.6,76,0.00,,,0.00,VWS V14.01,2013-07-04 14:44:00,
2013-07-04 10:49:00,80.2,71.2,29.68,WSW,248,2.9,2.9,74,0.00,,,0.00,VWS V14.01,2013-07-04 14:49:00,
2013-07-04 10:54:00,80.2,70.8,29.68,SSW,202,4.0,4.0,73,0.00,,,0.00,VWS V14.01,2013-07-04 14:54:00,
2013-07-04 10:59:00,80.2,71.2,29.68,East,90,3.1,3.1,74,0.00,,,0.00,VWS V14.01,2013-07-04 14:59:00,
2013-07-04 11:04:00,80.6,71.6,29.68,SSE,158,3.8,3.8,74,0.00,,,0.00,VWS V14.01,2013-07-04 15:04:00,
2013-07-04 11:09:00,81.1,72.1,29.68,SSE,158,1.1,1.1,74,0.00,,,0.00,VWS V14.01,2013-07-04 15:09:00,
2013-07-04 11:14:00,81.3,71.8,29.68,South,180,2.0,2.0,73,0.00,,,0.00,VWS V14.01,2013-07-04 15:14:00,
2013-07-04 11:19:00,81.5,71.6,29.68,SSW,202,3.6,3.6,72,0.00,,,0.00,VWS V14.01,2013-07-04 15:19:00,
2013-07-04 11:24:00,81.7,71.8,29.68,WSW,248,3.1,3.1,72,0.00,,,0.00,VWS V14.01,2013-07-04 15:24:00,
2013-07-04 11:29:00,81.9,71.9,29.68,SW,225,2.9,2.9,72,0.00,,,0.00,VWS V14.01,2013-07-04 15:29:00,
2013-07-04 11:34:00,82.2,72.7,29.68,SE,135,8.5,8.5,73,0.00,,,0.00,VWS V14.01,2013-07-04 15:34:00,
2013-07-04 11:39:00,82.9,73.4,29.68,SSW,202,3.6,3.6,73,0.00,,,0.00,VWS V14.01,2013-07-04 15:39:00,
2013-07-04 11:44:00,83.3,72.9,29.68,South,180,4.0,4.0,71,0.00,,,0.00,VWS V14.01,2013-07-04 15:44:00,
2013-07-04 11:49:00,84.0,74.0,29.68,SSE,158,5.4,5.4,72,0.00,,,0.00,VWS V14.01,2013-07-04 15:49:00,
2013-07-04 11:54:00,83.8,72.6,29.68,SSW,202,4.9,4.9,69,0.00,,,0.00,VWS V14.01,2013-07-04 15:54:00,
2013-07-04 11:59:00,83.8,73.0,29.68,SSW,202,2.0,2.0,70,0.00,,,0.00,VWS V14.01,2013-07-04 15:59:00,
2013-07-04 12:04:00,84.2,72.5,29.68,South,180,5.4,5.4,68,0.00,,,0.00,VWS V14.01,2013-07-04 16:04:00,
2013-07-04 12:09:00,84.0,71.9,29.68,WSW,248,4.3,4.3,67,0.00,,,0.00,VWS V14.01,2013-07-04 16:09:00,
2013-07-04 12:14:00,83.8,71.3,29.68,South,180,2.5,2.5,66,0.00,,,0.00,VWS V14.01,2013-07-04 16:14:00,
2013-07-04 12:19:00,83.8,71.7,29.68,South,180,3.1,3.1,67,0.00,,,0.00,VWS V14.01,2013-07-04 16:19:00,
2013-07-04 12:24:00,83.8,72.2,29.68,SSW,202,2.9,2.9,68,0.00,,,0.00,VWS V14.01,2013-07-04 16:24:00,
2013-07-04 12:29:00,84.0,72.3,29.68,SSW,202,2.5,2.5,68,0.00,,,0.00,VWS V14.01,2013-07-04 16:29:00,
2013-07-04 12:34:00,84.4,72.2,29.68,South,180,3.6,3.6,67,0.00,,,0.00,VWS V14.01,2013-07-04 16:34:00,
2013-07-04 12:39:00,84.6,72.0,29.68,SSW,202,2.2,2.2,66,0.00,,,0.00,VWS V14.01,2013-07-04 16:39:00,
2013-07-04 12:44:00,85.1,72.5,29.68,SSE,158,3.8,3.8,66,0.00,,,0.00,VWS V14.01,2013-07-04 16:44:00,
2013-07-04 12:49:00,85.3,73.1,29.68,WSW,248,3.8,3.8,67,0.00,,,0.00,VWS V14.01,2013-07-04 16:49:00,
2013-07-04 12:54:00,85.8,73.2,29.68,South,180,5.4,5.4,66,0.00,,,0.00,VWS V14.01,2013-07-04 16:54:00,
2013-07-04 12:59:00,86.0,72.9,29.68,SSW,202,3.1,3.1,65,0.00,,,0.00,VWS V14.01,2013-07-04 16:59:00,
2013-07-04 13:04:00,86.5,73.8,29.68,West,270,3.4,3.4,66,0.00,,,0.00,VWS V14.01,2013-07-04 17:04:00,
2013-07-04 13:09:00,87.1,74.3,29.68,SSW,202,5.6,5.6,66,0.00,,,0.00,VWS V14.01,2013-07-04 17:09:00,
2013-07-04 13:14:00,87.6,73.9,29.68,SW,225,3.1,3.1,64,0.00,,,0.00,VWS V14.01,2013-07-04 17:14:00,
2013-07-04 13:19:00,87.4,73.3,29.68,South,180,1.6,1.6,63,0.00,,,0.00,VWS V14.01,2013-07-04 17:19:00,
2013-07-04 13:24:00,87.1,71.5,29.68,WSW,248,5.4,5.4,60,0.00,,,0.00,VWS V14.01,2013-07-04 17:24:00,
2013-07-04 13:29:00,87.1,72.0,29.68,South,180,2.9,2.9,61,0.00,,,0.00,VWS V14.01,2013-07-04 17:29:00,
2013-07-04 13:34:00,87.3,71.2,29.68,WSW,248,2.9,2.9,59,0.00,,,0.00,VWS V14.01,2013-07-04 17:34:00,
2013-07-04 13:39:00,87.1,71.5,29.68,SSW,202,6.0,6.0,60,0.00,,,0.00,VWS V14.01,2013-07-04 17:39:00,
2013-07-04 13:44:00,87.6,72.0,29.68,SSW,202,7.6,7.6,60,0.00,,,0.00,VWS V14.01,2013-07-04 17:44:00,
2013-07-04 13:49:00,87.8,72.2,29.68,WSW,248,5.4,5.4,60,0.00,,,0.00,VWS V14.01,2013-07-04 17:49:00,
2013-07-04 13:54:00,88.2,73.0,29.68,SSW,202,6.5,6.5,61,0.00,,,0.00,VWS V14.01,2013-07-04 17:54:00,
2013-07-04 13:59:00,88.3,72.7,29.68,SSW,202,6.3,6.3,60,0.00,,,0.00,VWS V14.01,2013-07-04 17:59:00,
2013-07-04 14:04:00,88.7,71.5,29.68,SW,225,8.1,8.1,57,0.00,,,0.00,VWS V14.01,2013-07-04 18:04:00,
2013-07-04 14:09:00,88.7,72.0,29.68,SSE,158,2.9,2.9,58,0.00,,,0.00,VWS V14.01,2013-07-04 18:09:00,
2013-07-04 14:14:00,88.2,70.0,29.68,SSW,202,2.9,2.9,55,0.00,,,0.00,VWS V14.01,2013-07-04 18:14:00,
2013-07-04 14:19:00,87.3,69.1,29.68,South,180,4.7,4.7,55,0.00,,,0.00,VWS V14.01,2013-07-04 18:19:00,
2013-07-04 14:24:00,87.6,71.0,29.68,SSW,202,3.4,3.4,58,0.00,,,0.00,VWS V14.01,2013-07-04 18:24:00,
2013-07-04 14:29:00,88.3,72.2,29.68,SW,225,3.4,3.4,59,0.00,,,0.00,VWS V14.01,2013-07-04 18:29:00,
2013-07-04 14:34:00,88.9,71.7,29.68,SW,225,6.3,6.3,57,0.00,,,0.00,VWS V14.01,2013-07-04 18:34:00,
2013-07-04 14:39:00,88.7,69.9,29.68,SSW,202,6.5,6.5,54,0.00,,,0.00,VWS V14.01,2013-07-04 18:39:00,
2013-07-04 14:44:00,88.2,69.4,29.68,SSW,202,4.3,4.3,54,0.00,,,0.00,VWS V14.01,2013-07-04 18:44:00,
2013-07-04 14:49:00,87.6,69.5,29.68,WNW,292,2.2,2.2,55,0.00,,,0.00,VWS V14.01,2013-07-04 18:49:00,
2013-07-04 14:54:00,87.6,71.5,29.68,SSE,158,5.8,5.8,59,0.00,,,0.00,VWS V14.01,2013-07-04 18:54:00,
2013-07-04 14:59:00,88.3,71.2,29.68,SSW,202,4.0,4.0,57,0.00,,,0.00,VWS V14.01,2013-07-04 18:59:00,
2013-07-04 15:04:00,89.2,71.5,29.65,WSW,248,5.4,5.4,56,0.00,,,0.00,VWS V14.01,2013-07-04 19:04:00,
2013-07-04 15:09:00,90.1,71.8,29.65,SSW,202,0.9,0.9,55,0.00,,,0.00,VWS V14.01,2013-07-04 19:09:00,
2013-07-04 15:14:00,90.3,69.2,29.65,West,270,4.0,4.0,50,0.00,,,0.00,VWS V14.01,2013-07-04 19:14:00,
2013-07-04 15:19:00,90.9,71.4,29.65,SSW,202,4.0,4.0,53,0.00,,,0.00,VWS V14.01,2013-07-04 19:19:00,
2013-07-04 15:24:00,91.4,70.2,29.65,SSE,158,4.3,4.3,50,0.00,,,0.00,VWS V14.01,2013-07-04 19:24:00,
2013-07-04 15:29:00,91.8,71.1,29.65,South,180,2.7,2.7,51,0.00,,,0.00,VWS V14.01,2013-07-04 19:29:00,
2013-07-04 15:34:00,92.3,70.4,29.62,WSW,248,3.8,3.8,49,0.00,,,0.00,VWS V14.01,2013-07-04 19:34:00,
2013-07-04 15:39:00,92.3,69.2,29.62,SSW,202,4.3,4.3,47,0.00,,,0.00,VWS V14.01,2013-07-04 19:39:00,
2013-07-04 15:44:00,92.5,70.6,29.62,South,180,5.8,5.8,49,0.00,,,0.00,VWS V14.01,2013-07-04 19:44:00,
2013-07-04 15:49:00,92.8,70.3,29.62,South,180,2.5,2.5,48,0.00,,,0.00,VWS V14.01,2013-07-04 19:49:00,
2013-07-04 15:54:00,92.8,69.7,29.62,SSW,202,10.1,10.1,47,0.00,,,0.00,VWS V14.01,2013-07-04 19:54:00,
2013-07-04 15:59:00,92.8,69.7,29.62,SSW,202,4.3,4.3,47,0.00,,,0.00,VWS V14.01,2013-07-04 19:59:00,
2013-07-04 16:04:00,93.2,69.4,29.62,NW,315,2.0,2.0,46,0.00,,,0.00,VWS V14.01,2013-07-04 20:04:00,
2013-07-04 16:09:00,93.6,69.0,29.62,SW,225,4.7,4.7,45,0.00,,,0.00,VWS V14.01,2013-07-04 20:09:00,
2013-07-04 16:14:00,93.7,69.2,29.62,South,180,10.1,10.1,45,0.00,,,0.00,VWS V14.01,2013-07-04 20:14:00,
2013-07-04 16:19:00,94.3,68.4,29.62,SSW,202,6.7,6.7,43,0.00,,,0.00,VWS V14.01,2013-07-04 20:19:00,
2013-07-04 16:24:00,94.6,69.4,29.62,NW,315,1.1,1.1,44,0.00,,,0.00,VWS V14.01,2013-07-04 20:24:00,
2013-07-04 16:30:00,95.4,70.0,29.62,South,180,3.4,3.4,44,0.00,,,0.00,VWS V14.01,2013-07-04 20:30:00,
2013-07-04 16:35:00,96.3,68.0,29.62,South,180,2.5,2.5,40,0.00,,,0.00,VWS V14.01,2013-07-04 20:35:00,
2013-07-04 16:40:00,97.5,69.9,29.62,NW,315,4.0,4.0,41,0.00,,,0.00,VWS V14.01,2013-07-04 20:40:00,
2013-07-04 16:45:00,98.8,69.5,29.62,South,180,5.6,5.6,39,0.00,,,0.00,VWS V14.01,2013-07-04 20:45:00,
2013-07-04 16:50:00,99.5,69.4,29.62,SSW,202,4.3,4.3,38,0.00,,,0.00,VWS V14.01,2013-07-04 20:50:00,
2013-07-04 16:55:00,100.9,68.3,29.62,South,180,5.4,5.4,35,0.00,,,0.00,VWS V14.01,2013-07-04 20:55:00,
2013-07-04 17:00:00,101.3,66.0,29.62,South,180,4.9,4.9,32,0.00,,,0.00,VWS V14.01,2013-07-04 21:00:00,
2013-07-04 17:05:00,100.9,66.6,29.62,South,180,5.8,5.8,33,0.00,,,0.00,VWS V14.01,2013-07-04 21:05:00,
2013-07-04 17:10:00,98.1,64.9,29.62,SE,135,3.6,3.6,34,0.00,,,0.00,VWS V14.01,2013-07-04 21:10:00,
2013-07-04 17:15:00,96.6,65.3,29.62,South,180,4.3,4.3,36,0.00,,,0.00,VWS V14.01,2013-07-04 21:15:00,
2013-07-04 17:20:00,96.1,65.6,29.62,West,270,2.5,2.5,37,0.00,,,0.00,VWS V14.01,2013-07-04 21:20:00,
2013-07-04 17:25:00,95.0,65.4,29.62,SSW,202,8.1,8.1,38,0.00,,,0.00,VWS V14.01,2013-07-04 21:25:00,
2013-07-04 17:30:00,93.9,64.5,29.62,South,180,6.5,6.5,38,0.00,,,0.00,VWS V14.01,2013-07-04 21:30:00,
2013-07-04 17:35:00,92.8,65.0,29.62,South,180,2.7,2.7,40,0.00,,,0.00,VWS V14.01,2013-07-04 21:35:00,
2013-07-04 17:40:00,91.8,64.7,29.62,South,180,2.9,2.9,41,0.00,,,0.00,VWS V14.01,2013-07-04 21:40:00,
2013-07-04 17:45:00,91.8,66.1,29.62,SSW,202,2.5,2.5,43,0.00,,,0.00,VWS V14.01,2013-07-04 21:45:00,
2013-07-04 17:50:00,91.9,66.3,29.62,WSW,248,4.3,4.3,43,0.00,,,0.00,VWS V14.01,2013-07-04 21:50:00,
2013-07-04 17:55:00,91.8,66.1,29.62,WSW,248,6.3,6.3,43,0.00,,,0.00,VWS V14.01,2013-07-04 21:55:00,
2013-07-04 18:00:00,90.9,65.9,29.62,SSW,202,6.3,6.3,44,0.00,,,0.00,VWS V14.01,2013-07-04 22:00:00,
2013-07-04 18:05:00,90.7,66.4,29.62,SSW,202,2.7,2.7,45,0.00,,,0.00,VWS V14.01,2013-07-04 22:05:00,
2013-07-04 18:10:00,90.5,66.3,29.62,SSW,202,5.4,5.4,45,0.00,,,0.00,VWS V14.01,2013-07-04 22:10:00,
2013-07-04 18:15:00,89.8,65.6,29.62,SSW,202,2.7,2.7,45,0.00,,,0.00,VWS V14.01,2013-07-04 22:15:00,
2013-07-04 18:20:00,89.1,66.2,29.62,South,180,6.0,6.0,47,0.00,,,0.00,VWS V14.01,2013-07-04 22:20:00,
2013-07-04 18:25:00,88.7,65.9,29.62,South,180,4.7,4.7,47,0.00,,,0.00,VWS V14.01,2013-07-04 22:25:00,
2013-07-04 18:30:00,88.3,66.2,29.62,SSW,202,1.6,1.6,48,0.00,,,0.00,VWS V14.01,2013-07-04 22:30:00,
2013-07-04 18:35:00,88.3,66.8,29.62,South,180,2.7,2.7,49,0.00,,,0.00,VWS V14.01,2013-07-04 22:35:00,
2013-07-04 18:40:00,88.3,66.8,29.62,South,180,6.5,6.5,49,0.00,,,0.00,VWS V14.01,2013-07-04 22:40:00,
2013-07-04 18:45:00,88.0,67.0,29.62,SSW,202,7.4,7.4,50,0.00,,,0.00,VWS V14.01,2013-07-04 22:45:00,
2013-07-04 18:50:00,88.2,67.2,29.62,South,180,2.5,2.5,50,0.00,,,0.00,VWS V14.01,2013-07-04 22:50:00,
2013-07-04 18:55:00,88.3,67.9,29.62,South,180,3.8,3.8,51,0.00,,,0.00,VWS V14.01,2013-07-04 22:55:00,
2013-07-04 19:00:00,88.7,68.3,29.62,SSW,202,1.6,1.6,51,0.00,,,0.00,VWS V14.01,2013-07-04 23:00:00,
2013-07-04 19:05:00,88.3,67.4,29.62,South,180,2.7,2.7,50,0.00,,,0.00,VWS V14.01,2013-07-04 23:05:00,
2013-07-04 19:10:00,87.8,67.4,29.62,SW,225,5.4,5.4,51,0.00,,,0.00,VWS V14.01,2013-07-04 23:10:00,
2013-07-04 19:15:00,87.1,67.3,29.62,SSW,202,3.8,3.8,52,0.00,,,0.00,VWS V14.01,2013-07-04 23:15:00,
2013-07-04 19:20:00,86.7,67.6,29.62,SW,225,6.5,6.5,53,0.00,,,0.00,VWS V14.01,2013-07-04 23:20:00,
2013-07-04 19:25:00,86.4,67.8,29.62,South,180,2.7,2.7,54,0.00,,,0.00,VWS V14.01,2013-07-04 23:25:00,
2013-07-04 19:30:00,85.8,67.8,29.62,South,180,2.0,2.0,55,0.00,,,0.00,VWS V14.01,2013-07-04 23:30:00,
2013-07-04 19:35:00,85.5,66.9,29.62,South,180,6.0,6.0,54,0.00,,,0.00,VWS V14.01,2013-07-04 23:35:00,
2013-07-04 19:40:00,84.9,67.0,29.62,South,180,7.8,7.8,55,0.00,,,0.00,VWS V14.01,2013-07-04 23:40:00,
2013-07-04 19:45:00,84.4,66.5,29.62,SSW,202,2.9,2.9,55,0.00,,,0.00,VWS V14.01,2013-07-04 23:45:00,
2013-07-04 19:50:00,84.0,67.2,29.62,WSW,248,3.8,3.8,57,0.00,,,0.00,VWS V14.01,2013-07-04 23:50:00,
2013-07-04 19:55:00,83.8,67.5,29.62,SSW,202,2.5,2.5,58,0.00,,,0.00,VWS V14.01,2013-07-04 23:55:00,
2013-07-04 20:00:00,83.5,67.2,29.62,South,180,4.9,4.9,58,0.00,,,0.00,VWS V14.01,2013-07-05 00:00:00,
2013-07-04 20:05:00,83.1,67.3,29.62,South,180,2.7,2.7,59,0.00,,,0.00,VWS V14.01,2013-07-05 00:05:00,
2013-07-04 20:10:00,82.8,67.0,29.62,SSW,202,3.1,3.1,59,0.00,,,0.00,VWS V14.01,2013-07-05 00:10:00,
2013-07-04 20:15:00,82.6,67.3,29.62,SSW,202,2.5,2.5,60,0.00,,,0.00,VWS V14.01,2013-07-05 00:15:00,
2013-07-04 20:20:00,82.2,67.4,29.62,SSW,202,2.9,2.9,61,0.00,,,0.00,VWS V14.01,2013-07-05 00:20:00,
2013-07-04 20:25:00,82.0,67.3,29.62,SSW,202,3.1,3.1,61,0.00,,,0.00,VWS V14.01,2013-07-05 00:25:00,
2013-07-04 20:30:00,81.9,67.6,29.62,South,180,3.8,3.8,62,0.00,,,0.00,VWS V14.01,2013-07-05 00:30:00,
2013-07-04 20:35:00,81.5,67.2,29.62,South,180,2.2,2.2,62,0.00,,,0.00,VWS V14.01,2013-07-05 00:35:00,
2013-07-04 20:40:00,81.5,67.2,29.62,South,180,2.9,2.9,62,0.00,,,0.00,VWS V14.01,2013-07-05 00:40:00,
2013-07-04 20:45:00,81.1,67.4,29.62,SW,225,3.1,3.1,63,0.00,,,0.00,VWS V14.01,2013-07-05 00:45:00,
2013-07-04 20:50:00,80.8,67.5,29.62,SSE,158,1.3,1.3,64,0.00,,,0.00,VWS V14.01,2013-07-05 00:50:00,
2013-07-04 20:55:00,80.6,67.3,29.62,SE,135,0.9,0.9,64,0.00,,,0.00,VWS V14.01,2013-07-05 00:55:00,
2013-07-04 21:00:00,80.2,67.9,29.62,SE,135,1.3,1.3,66,0.00,,,0.00,VWS V14.01,2013-07-05 01:00:00,
2013-07-04 21:05:00,80.1,67.7,29.62,SE,135,0.0,0.0,66,0.00,,,0.00,VWS V14.01,2013-07-05 01:05:00,
2013-07-04 21:10:00,79.9,67.5,29.62,South,180,0.0,0.0,66,0.00,,,0.00,VWS V14.01,2013-07-05 01:10:00,
2013-07-04 21:15:00,79.7,67.8,29.62,SSW,202,0.0,0.0,67,0.00,,,0.00,VWS V14.01,2013-07-05 01:15:00,
2013-07-04 21:17:00,79.5,67.6,29.62,SSW,202,1.6,1.6,67,0.00,,,0.00,VWS V14.01,2013-07-05 01:17:00,
2013-07-04 21:22:00,79.3,67.4,29.62,South,180,2.5,2.5,67,0.00,,,0.00,VWS V14.01,2013-07-05 01:22:00,
2013-07-04 21:27:00,79.2,67.3,29.62,SE,135,0.0,0.0,67,0.00,,,0.00,VWS V14.01,2013-07-05 01:27:00,
2013-07-04 21:32:00,79.0,67.5,29.65,SE,135,2.9,2.9,68,0.00,,,0.00,VWS V14.01,2013-07-05 01:32:00,
2013-07-04 21:37:00,78.8,67.4,29.65,South,180,2.7,2.7,68,0.00,,,0.00,VWS V14.01,2013-07-05 01:37:00,
2013-07-04 21:42:00,78.8,67.8,29.65,SSW,202,2.9,2.9,69,0.00,,,0.00,VWS V14.01,2013-07-05 01:42:00,
2013-07-04 21:47:00,78.4,67.4,29.65,SSE,158,2.5,2.5,69,0.00,,,0.00,VWS V14.01,2013-07-05 01:47:00,
2013-07-04 21:52:00,78.3,67.7,29.65,South,180,2.5,2.5,70,0.00,,,0.00,VWS V14.01,2013-07-05 01:52:00,
2013-07-04 21:57:00,78.3,67.7,29.65,SSE,158,0.0,0.0,70,0.00,,,0.00,VWS V14.01,2013-07-05 01:57:00,
2013-07-04 22:02:00,77.9,67.3,29.68,SE,135,0.0,0.0,70,0.00,,,0.00,VWS V14.01,2013-07-05 02:02:00,
2013-07-04 22:07:00,77.9,67.3,29.68,SSE,158,1.6,1.6,70,0.00,,,0.00,VWS V14.01,2013-07-05 02:07:00,
2013-07-04 22:12:00,77.7,67.2,29.68,South,180,2.0,2.0,70,0.00,,,0.00,VWS V14.01,2013-07-05 02:12:00,
2013-07-04 22:17:00,77.5,67.4,29.65,SE,135,2.7,2.7,71,0.00,,,0.00,VWS V14.01,2013-07-05 02:17:00,
2013-07-04 22:22:00,77.5,67.4,29.65,SSE,158,2.7,2.7,71,0.00,,,0.00,VWS V14.01,2013-07-05 02:22:00,
2013-07-04 22:27:00,77.4,67.6,29.65,SSW,202,1.6,1.6,72,0.00,,,0.00,VWS V14.01,2013-07-05 02:27:00,
2013-07-04 22:32:00,77.2,67.5,29.65,SSE,158,2.5,2.5,72,0.00,,,0.00,VWS V14.01,2013-07-05 02:32:00,
2013-07-04 22:37:00,77.2,67.5,29.65,SSE,158,2.0,2.0,72,0.00,,,0.00,VWS V14.01,2013-07-05 02:37:00,
2013-07-04 22:42:00,77.0,67.7,29.65,South,180,2.5,2.5,73,0.00,,,0.00,VWS V14.01,2013-07-05 02:42:00,
2013-07-04 22:47:00,77.0,67.7,29.65,SSE,158,2.2,2.2,73,0.00,,,0.00,VWS V14.01,2013-07-05 02:47:00,
2013-07-04 22:52:00,76.8,67.5,29.65,SSW,202,3.1,3.1,73,0.00,,,0.00,VWS V14.01,2013-07-05 02:52:00,
2013-07-04 22:57:00,76.8,67.5,29.65,SSE,158,2.7,2.7,73,0.00,,,0.00,VWS V14.01,2013-07-05 02:57:00,
2013-07-04 23:02:00,76.8,67.9,29.68,South,180,2.7,2.7,74,0.00,,,0.00,VWS V14.01,2013-07-05 03:02:00,
2013-07-04 23:07:00,76.6,67.7,29.68,SW,225,3.6,3.6,74,0.00,,,0.00,VWS V14.01,2013-07-05 03:07:00,
2013-07-04 23:12:00,76.5,67.6,29.68,SSE,158,2.5,2.5,74,0.00,,,0.00,VWS V14.01,2013-07-05 03:12:00,
2013-07-04 23:17:00,76.5,67.9,29.65,SSW,202,3.4,3.4,75,0.00,,,0.00,VWS V14.01,2013-07-05 03:17:00,
2013-07-04 23:22:00,76.3,67.8,29.65,South,180,2.0,2.0,75,0.00,,,0.00,VWS V14.01,2013-07-05 03:22:00,
2013-07-04 23:27:00,76.3,67.8,29.65,SE,135,2.2,2.2,75,0.00,,,0.00,VWS V14.01,2013-07-05 03:27:00,
2013-07-04 23:32:00,76.1,68.0,29.68,South,180,1.1,1.1,76,0.00,,,0.00,VWS V14.01,2013-07-05 03:32:00,
2013-07-04 23:37:00,75.9,67.8,29.68,WSW,248,0.0,0.0,76,0.00,,,0.00,VWS V14.01,2013-07-05 03:37:00,
2013-07-04 23:42:00,75.9,67.8,29.68,SE,135,2.5,2.5,76,0.00,,,0.00,VWS V14.01,2013-07-05 03:42:00,
2013-07-04 23:47:00,75.7,68.0,29.65,SSE,158,1.3,1.3,77,0.00,,,0.00,VWS V14.01,2013-07-05 03:47:00,
2013-07-04 23:52:00,75.7,68.0,29.65,SE,135,1.3,1.3,77,0.00,,,0.00,VWS V14.01,2013-07-05 03:52:00,
2013-07-04 23:57:00,75.6,67.8,29.65,South,180,1.6,1.6,77,0.00,,,0.00,VWS V14.01,2013-07-05 03:57:00,